createdAt,value
2018-11-04T00:00:52.712Z,42.80
2018-11-04T00:03:20.709Z,29.37
2018-11-04T00:05:48.617Z,61.33
2018-11-04T00:08:16.091Z,38.90
2018-11-04T00:10:43.585Z,27.80
2018-11-04T00:13:11.071Z,38.47
2018-11-04T00:15:38.506Z,28.07
2018-11-04T00:18:06.020Z,24.27
2018-11-04T00:20:33.467Z,25.27
2018-11-04T00:23:00.979Z,23.33
2018-11-04T00:25:28.417Z,32.80
2018-11-04T00:27:55.922Z,17.20
2018-11-04T00:30:23.358Z,17.60
2018-11-04T00:32:50.810Z,35.13
2018-11-04T00:35:18.266Z,20.87
2018-11-04T00:37:45.745Z,33.70
2018-11-04T00:40:13.206Z,26.47
2018-11-04T00:42:40.758Z,19.73
2018-11-04T00:45:08.712Z,21.40
2018-11-04T00:47:36.512Z,10.70
2018-11-04T00:50:05.764Z,22.93
2018-11-04T00:52:33.517Z,16.07
2018-11-04T00:55:01.918Z,23.57
2018-11-04T00:57:31.981Z,14.73
2018-11-04T00:59:59.655Z,24.77
2018-11-04T01:02:27.262Z,20.10
2018-11-04T01:04:54.858Z,20.57
2018-11-04T01:07:22.453Z,30.27
2018-11-04T01:09:50.147Z,22.03
2018-11-04T01:12:19.141Z,20.90
2018-11-04T01:14:46.598Z,27.80
2018-11-04T01:17:14.093Z,18.73
2018-11-04T01:19:41.537Z,13.23
2018-11-04T01:22:09.017Z,29.27
2018-11-04T01:24:36.588Z,21.13
2018-11-04T01:27:04.145Z,11.80
2018-11-04T01:29:31.605Z,10.07
2018-11-04T01:31:59.368Z,15.27
2018-11-04T01:34:26.834Z,25.27
2018-11-04T01:36:54.302Z,12.57
2018-11-04T01:39:21.769Z,19.00
2018-11-04T01:41:49.243Z,16.07
2018-11-04T01:44:16.685Z,19.07
2018-11-04T01:46:44.139Z,29.53
2018-11-04T01:49:11.586Z,15.13
2018-11-04T01:51:39.021Z,18.67
2018-11-04T01:54:06.506Z,23.90
2018-11-04T01:56:34.064Z,12.67
2018-11-04T01:59:01.755Z,21.40
2018-11-04T02:01:29.205Z,44.57
2018-11-04T02:03:56.689Z,20.73
2018-11-04T02:06:24.253Z,17.20
2018-11-04T02:08:51.679Z,32.13
2018-11-04T02:11:19.147Z,27.53
2018-11-04T02:13:46.573Z,24.43
2018-11-04T02:16:14.005Z,27.83
2018-11-04T02:18:41.875Z,27.00
2018-11-04T02:21:09.286Z,11.40
2018-11-04T02:23:36.761Z,31.67
2018-11-04T02:26:04.325Z,30.67
2018-11-04T02:28:31.802Z,28.43
2018-11-04T02:30:59.264Z,27.10
2018-11-04T02:33:26.736Z,27.23
2018-11-04T02:35:54.170Z,24.27
2018-11-04T02:38:21.609Z,26.03
2018-11-04T02:40:49.117Z,16.00
2018-11-04T02:43:16.617Z,50.17
2018-11-04T02:45:44.077Z,25.77
2018-11-04T02:48:11.523Z,39.20
2018-11-04T02:50:39.064Z,11.50
2018-11-04T02:53:06.583Z,19.47
2018-11-04T02:55:34.032Z,19.23
2018-11-04T02:58:01.459Z,31.03
2018-11-04T03:00:28.943Z,30.03
2018-11-04T03:02:56.381Z,37.30
2018-11-04T03:05:24.092Z,20.50
2018-11-04T03:07:51.569Z,28.50
2018-11-04T03:10:19.004Z,29.60
2018-11-04T03:12:46.513Z,30.60
2018-11-04T03:15:13.962Z,30.60
2018-11-04T03:17:41.462Z,26.70
2018-11-04T03:20:08.933Z,24.87
2018-11-04T03:22:36.402Z,27.57
2018-11-04T03:25:04.208Z,40.37
2018-11-04T03:27:31.702Z,37.43
2018-11-04T03:29:59.165Z,39.27
2018-11-04T03:32:26.666Z,28.47
2018-11-04T03:34:54.148Z,35.27
2018-11-04T03:37:21.994Z,50.20
2018-11-04T03:39:49.568Z,32.63
2018-11-04T03:42:17.328Z,43.97
2018-11-04T03:44:44.990Z,41.83
2018-11-04T03:47:12.633Z,42.10
2018-11-04T03:49:40.336Z,39.57
2018-11-04T03:52:07.929Z,50.50
2018-11-04T03:54:35.380Z,63.00
2018-11-04T03:57:02.849Z,67.03
2018-11-04T03:59:30.302Z,45.77
2018-11-04T04:01:57.755Z,73.40
2018-11-04T04:04:25.258Z,59.37
2018-11-04T04:06:52.741Z,43.10
2018-11-04T04:09:20.226Z,41.50
2018-11-04T04:11:47.678Z,97.83
2018-11-04T04:14:15.113Z,54.00
2018-11-04T04:16:42.562Z,38.43
2018-11-04T04:19:10.201Z,53.93
2018-11-04T04:21:37.698Z,52.00
2018-11-04T04:24:05.398Z,40.17
2018-11-04T04:26:32.838Z,32.60
2018-11-04T04:29:00.305Z,41.43
2018-11-04T04:31:27.895Z,41.63
2018-11-04T04:33:55.305Z,30.07
2018-11-04T04:36:22.906Z,54.73
2018-11-04T04:38:50.386Z,46.87
2018-11-04T04:41:17.817Z,30.37
2018-11-04T04:43:45.262Z,32.57
2018-11-04T04:46:12.737Z,33.57
2018-11-04T04:48:40.203Z,35.77
2018-11-04T04:51:07.661Z,32.83
2018-11-04T04:53:35.088Z,26.37
2018-11-04T04:56:02.544Z,35.20
2018-11-04T04:58:30.034Z,27.20
2018-11-04T05:00:57.529Z,45.60
2018-11-04T05:03:25.012Z,37.23
2018-11-04T05:05:52.485Z,19.53
2018-11-04T05:08:19.893Z,30.90
2018-11-04T05:10:47.745Z,22.47
2018-11-04T05:13:15.474Z,29.40
2018-11-04T05:15:43.035Z,29.90
2018-11-04T05:18:10.534Z,22.57
2018-11-04T05:20:38.005Z,33.17
2018-11-04T05:23:05.542Z,37.20
2018-11-04T05:25:33.019Z,20.67
2018-11-04T05:28:00.499Z,20.13
2018-11-04T05:30:28.210Z,14.60
2018-11-04T05:32:55.795Z,25.20
2018-11-04T05:35:23.286Z,23.27
2018-11-04T05:37:50.754Z,42.07
2018-11-04T05:40:18.273Z,34.00
2018-11-04T05:42:45.752Z,54.00
2018-11-04T05:45:13.213Z,45.63
2018-11-04T05:47:40.688Z,66.10
2018-11-04T05:50:08.202Z,53.27
2018-11-04T05:52:36.104Z,61.17
2018-11-04T05:55:04.434Z,52.10
2018-11-04T05:57:31.890Z,58.97
2018-11-04T05:59:59.310Z,41.57
2018-11-04T06:02:26.866Z,41.10
2018-11-04T06:04:54.328Z,21.97
2018-11-04T06:07:21.746Z,33.77
2018-11-04T06:09:49.234Z,27.77
2018-11-04T06:12:16.663Z,26.97
2018-11-04T06:14:44.256Z,23.67
2018-11-04T06:17:11.663Z,31.23
2018-11-04T06:19:39.125Z,34.80
2018-11-04T06:22:06.560Z,43.60
2018-11-04T06:24:34.010Z,30.57
2018-11-04T06:27:01.483Z,40.87
2018-11-04T06:29:28.908Z,29.63
2018-11-04T06:31:56.396Z,46.13
2018-11-04T06:34:23.906Z,46.77
2018-11-04T06:36:51.393Z,41.90
2018-11-04T06:39:18.933Z,47.13
2018-11-04T06:41:46.342Z,56.40
2018-11-04T06:44:13.788Z,39.43
2018-11-04T06:46:41.306Z,48.47
2018-11-04T06:49:08.773Z,30.97
2018-11-04T06:51:36.253Z,44.37
2018-11-04T06:54:04.041Z,30.83
2018-11-04T06:56:31.488Z,24.30
2018-11-04T06:58:58.956Z,23.00
2018-11-04T07:01:26.443Z,26.57
2018-11-04T07:04:05.534Z,23.50
2018-11-04T07:06:33.066Z,46.13
2018-11-04T07:09:00.532Z,40.90
2018-11-04T07:11:27.986Z,34.77
2018-11-04T07:13:55.452Z,27.17
2018-11-04T07:16:22.933Z,31.60
2018-11-04T07:18:50.393Z,40.07
2018-11-04T07:21:17.852Z,31.77
2018-11-04T07:23:45.300Z,43.70
2018-11-04T07:26:12.801Z,56.57
2018-11-04T07:28:40.247Z,35.13
2018-11-04T07:31:07.696Z,47.73
2018-11-04T07:33:35.178Z,45.70
2018-11-04T07:36:02.706Z,53.90
2018-11-04T07:38:30.145Z,42.80
2018-11-04T07:40:57.725Z,41.97
2018-11-04T07:43:25.150Z,32.60
2018-11-04T07:45:52.588Z,39.20
2018-11-04T07:48:20.007Z,32.60
2018-11-04T07:50:47.546Z,40.17
2018-11-04T07:53:14.876Z,22.87
2018-11-04T07:55:42.337Z,22.30
2018-11-04T07:58:09.745Z,34.93
2018-11-04T08:00:37.242Z,33.13
2018-11-04T08:03:04.909Z,35.30
2018-11-04T08:05:32.342Z,38.13
2018-11-04T08:07:59.791Z,30.13
2018-11-04T08:10:27.237Z,33.13
2018-11-04T08:12:54.700Z,25.27
2018-11-04T08:15:22.143Z,22.57
2018-11-04T08:17:49.590Z,30.37
2018-11-04T08:20:17.022Z,32.60
2018-11-04T08:22:44.537Z,28.87
2018-11-04T08:25:12.141Z,21.07
2018-11-04T08:27:39.689Z,19.80
2018-11-04T08:30:08.022Z,36.20
2018-11-04T08:32:35.521Z,27.30
2018-11-04T08:35:03.880Z,24.57
2018-11-04T08:37:32.282Z,47.87
2018-11-04T08:39:59.883Z,18.17
2018-11-04T08:42:27.267Z,18.50
2018-11-04T08:44:55.181Z,19.73
2018-11-04T08:47:22.817Z,19.67
2018-11-04T08:49:50.800Z,12.53
2018-11-04T08:52:18.384Z,15.03
2018-11-04T08:54:45.968Z,14.30
2018-11-04T08:57:13.707Z,13.27
2018-11-04T08:59:41.613Z,12.23
2018-11-04T09:02:09.753Z,19.27
2018-11-04T09:04:38.098Z,16.87
2018-11-04T09:07:05.979Z,11.50
2018-11-04T09:09:33.490Z,17.47
2018-11-04T09:12:01.358Z,15.27
2018-11-04T09:14:28.768Z,12.50
2018-11-04T09:16:56.255Z,16.00
2018-11-04T09:19:23.686Z,12.57
2018-11-04T09:21:51.250Z,10.13
2018-11-04T09:24:18.815Z,10.67
2018-11-04T09:26:46.789Z,12.57
2018-11-04T09:29:14.633Z,11.80
2018-11-04T09:31:42.101Z,12.83
2018-11-04T09:34:09.663Z,12.90
2018-11-04T09:36:37.373Z,13.50
2018-11-04T09:39:09.082Z,9.30
2018-11-04T09:41:37.114Z,9.90
2018-11-04T09:44:04.803Z,9.97
2018-11-04T09:46:32.281Z,11.77
2018-11-04T09:48:59.823Z,11.40
2018-11-04T09:51:27.313Z,12.93
2018-11-04T09:53:54.742Z,10.77
2018-11-04T09:56:22.347Z,8.57
2018-11-04T09:58:49.753Z,11.80
2018-11-04T10:01:17.153Z,10.23
2018-11-04T10:03:44.633Z,12.53
2018-11-04T10:06:12.213Z,6.77
2018-11-04T10:08:40.056Z,8.10
2018-11-04T10:11:08.070Z,11.87
2018-11-04T10:13:35.983Z,9.73
2018-11-04T10:16:04.152Z,11.07
2018-11-04T10:18:31.992Z,10.10
2018-11-04T10:21:00.337Z,12.73
2018-11-04T10:23:28.100Z,10.60
2018-11-04T10:25:55.779Z,11.83
2018-11-04T10:28:23.286Z,9.43
2018-11-04T10:30:50.692Z,7.23
2018-11-04T10:33:18.264Z,9.90
2018-11-04T10:35:45.693Z,7.77
2018-11-04T10:38:13.183Z,6.83
2018-11-04T10:40:40.613Z,13.43
2018-11-04T10:43:08.000Z,11.57
2018-11-04T10:45:35.462Z,8.83
2018-11-04T10:48:02.912Z,11.10
2018-11-04T10:50:30.339Z,8.63
2018-11-04T10:52:57.781Z,7.13
2018-11-04T10:55:25.190Z,9.97
2018-11-04T10:57:52.621Z,5.80
2018-11-04T11:00:25.647Z,8.23
2018-11-04T11:02:53.065Z,8.67
2018-11-04T11:05:20.489Z,7.70
2018-11-04T11:07:47.975Z,10.73
2018-11-04T11:10:15.393Z,7.90
2018-11-04T11:12:42.802Z,7.17
2018-11-04T11:15:10.974Z,9.70
2018-11-04T11:17:38.746Z,9.60
2018-11-04T11:20:07.857Z,11.63
2018-11-04T11:22:35.417Z,8.70
2018-11-04T11:25:02.918Z,5.33
2018-11-04T11:27:30.353Z,9.90
2018-11-04T11:29:57.817Z,9.57
2018-11-04T11:32:25.266Z,10.07
2018-11-04T11:34:53.017Z,9.27
2018-11-04T11:37:21.093Z,11.00
2018-11-04T11:39:48.570Z,7.97
2018-11-04T11:42:15.969Z,8.03
2018-11-04T11:44:43.435Z,8.90
2018-11-04T11:47:10.858Z,10.47
2018-11-04T11:49:38.536Z,7.77
2018-11-04T11:52:05.985Z,7.40
2018-11-04T11:54:33.401Z,11.53
2018-11-04T11:57:00.822Z,7.43
2018-11-04T11:59:28.385Z,10.13
2018-11-04T12:01:55.953Z,11.87
2018-11-04T12:04:23.394Z,7.50
2018-11-04T12:06:50.801Z,7.50
2018-11-04T12:09:18.202Z,8.23
2018-11-04T12:11:45.612Z,9.63
2018-11-04T12:14:13.036Z,11.57
2018-11-04T12:16:40.494Z,9.87
2018-11-04T12:19:07.950Z,8.87
2018-11-04T12:21:35.357Z,9.57
2018-11-04T12:24:02.819Z,7.07
2018-11-04T12:26:30.236Z,8.47
2018-11-04T12:28:57.680Z,10.73
2018-11-04T12:31:25.085Z,7.40
2018-11-04T12:33:52.511Z,8.93
2018-11-04T12:36:19.950Z,6.90
2018-11-04T12:38:47.357Z,12.23
2018-11-04T12:41:14.761Z,16.57
2018-11-04T12:43:42.208Z,13.77
2018-11-04T12:46:09.601Z,9.10
2018-11-04T12:48:37.029Z,11.23
2018-11-04T12:51:04.858Z,12.40
2018-11-04T12:53:32.384Z,13.50
2018-11-04T12:55:59.832Z,11.70
2018-11-04T12:58:27.258Z,7.67
2018-11-04T13:00:54.643Z,9.13
2018-11-04T13:03:22.063Z,5.57
2018-11-04T13:05:49.514Z,5.90
2018-11-04T13:08:16.924Z,8.63
2018-11-04T13:10:44.350Z,6.80
2018-11-04T13:13:11.776Z,6.30
2018-11-04T13:15:39.168Z,6.97
2018-11-04T13:18:06.621Z,6.63
2018-11-04T13:20:34.016Z,8.87
2018-11-04T13:23:01.448Z,9.73
2018-11-04T13:25:28.863Z,6.83
2018-11-04T13:27:56.316Z,8.77
2018-11-04T13:30:23.720Z,9.27
2018-11-04T13:32:51.092Z,8.30
2018-11-04T13:35:18.544Z,6.77
2018-11-04T13:37:45.950Z,7.73
2018-11-04T13:40:13.366Z,9.47
2018-11-04T13:42:41.343Z,8.67
2018-11-04T13:45:09.382Z,8.07
2018-11-04T13:47:37.062Z,12.53
2018-11-04T13:50:06.820Z,9.23
2018-11-04T13:52:34.233Z,11.67
2018-11-04T13:55:01.666Z,11.43
2018-11-04T13:57:29.066Z,9.67
2018-11-04T13:59:56.529Z,9.73
2018-11-04T14:02:23.920Z,12.97
2018-11-04T14:04:51.411Z,10.37
2018-11-04T14:07:18.871Z,8.43
2018-11-04T14:09:46.277Z,10.17
2018-11-04T14:12:13.803Z,11.53
2018-11-04T14:14:41.209Z,10.03
2018-11-04T14:17:08.596Z,13.03
2018-11-04T14:19:36.009Z,8.27
2018-11-04T14:22:03.435Z,11.97
2018-11-04T14:24:30.894Z,12.23
2018-11-04T14:26:58.319Z,10.57
2018-11-04T14:29:25.828Z,10.63
2018-11-04T14:31:53.285Z,11.77
2018-11-04T14:34:20.695Z,12.70
2018-11-04T14:36:48.102Z,15.83
2018-11-04T14:39:15.561Z,12.57
2018-11-04T14:41:42.956Z,12.73
2018-11-04T14:44:10.345Z,10.53
2018-11-04T14:46:37.837Z,12.07
2018-11-04T14:49:05.367Z,10.73
2018-11-04T14:51:32.750Z,13.53
2018-11-04T14:54:00.196Z,14.60
2018-11-04T14:56:28.649Z,11.20
2018-11-04T14:58:56.803Z,12.73
2018-11-04T15:01:24.281Z,10.80
2018-11-04T15:03:52.238Z,13.33
2018-11-04T15:06:19.934Z,16.07
2018-11-04T15:08:47.361Z,14.00
2018-11-04T15:11:14.796Z,10.23
2018-11-04T15:13:42.450Z,12.53
2018-11-04T15:16:09.877Z,12.60
2018-11-04T15:18:37.308Z,12.23
2018-11-04T15:21:04.776Z,13.77
2018-11-04T15:23:32.161Z,12.30
2018-11-04T15:25:59.586Z,10.50
2018-11-04T15:28:27.009Z,10.13
2018-11-04T15:30:54.525Z,10.77
2018-11-04T15:33:21.921Z,7.77
2018-11-04T15:35:49.320Z,11.17
2018-11-04T15:38:16.754Z,10.47
2018-11-04T15:40:44.323Z,10.87
2018-11-04T15:43:11.669Z,8.17
2018-11-04T15:45:39.093Z,10.20
2018-11-04T15:48:06.497Z,8.73
2018-11-04T15:50:33.886Z,10.60
2018-11-04T15:53:01.336Z,11.33
2018-11-04T15:55:28.777Z,8.10
2018-11-04T15:57:56.245Z,9.70
2018-11-04T16:00:23.708Z,10.70
2018-11-04T16:02:51.105Z,9.27
2018-11-04T16:05:18.584Z,8.73
2018-11-04T16:07:45.993Z,7.70
2018-11-04T16:10:13.406Z,7.17
2018-11-04T16:12:40.868Z,9.80
2018-11-04T16:15:10.395Z,7.93
2018-11-04T16:17:37.825Z,10.43
2018-11-04T16:20:06.773Z,7.60
2018-11-04T16:22:34.213Z,10.70
2018-11-04T16:25:01.606Z,10.40
2018-11-04T16:27:29.061Z,6.67
2018-11-04T16:29:56.468Z,9.23
2018-11-04T16:32:24.797Z,5.93
2018-11-04T16:34:52.301Z,11.23
2018-11-04T16:37:19.728Z,7.17
2018-11-04T16:39:47.145Z,5.17
2018-11-04T16:42:14.583Z,6.57
2018-11-04T16:44:42.145Z,10.50
2018-11-04T16:47:10.045Z,7.10
2018-11-04T16:49:37.537Z,6.97
2018-11-04T16:52:05.285Z,8.57
2018-11-04T16:54:32.724Z,12.10
2018-11-04T16:57:00.274Z,14.90
2018-11-04T16:59:27.685Z,7.10
2018-11-04T17:01:55.102Z,6.20
2018-11-04T17:04:22.705Z,7.73
2018-11-04T17:06:49.985Z,7.97
2018-11-04T17:09:17.451Z,8.93
2018-11-04T17:11:44.869Z,10.60
2018-11-04T17:14:12.325Z,7.43
2018-11-04T17:16:39.830Z,6.87
2018-11-04T17:19:07.402Z,7.43
2018-11-04T17:21:34.856Z,9.13
2018-11-04T17:24:02.297Z,6.03
2018-11-04T17:26:29.728Z,5.13
2018-11-04T17:28:57.122Z,9.20
2018-11-04T17:31:24.540Z,6.93
2018-11-04T17:33:51.941Z,9.67
2018-11-04T17:36:19.420Z,5.63
2018-11-04T17:38:46.953Z,8.70
2018-11-04T17:41:15.980Z,8.07
2018-11-04T17:43:43.569Z,6.93
2018-11-04T17:46:10.977Z,10.20
2018-11-04T17:48:38.393Z,8.80
2018-11-04T17:51:05.907Z,7.17
2018-11-04T17:53:33.419Z,6.70
2018-11-04T17:56:00.872Z,8.90
2018-11-04T17:58:28.377Z,6.80
2018-11-04T18:00:55.785Z,4.33
2018-11-04T18:03:23.185Z,5.50
2018-11-04T18:05:50.646Z,6.10
2018-11-04T18:08:18.075Z,7.33
2018-11-04T18:10:46.108Z,9.37
2018-11-04T18:13:13.541Z,5.17
2018-11-04T18:15:40.922Z,6.77
2018-11-04T18:18:08.354Z,4.70
2018-11-04T18:20:35.749Z,5.50
2018-11-04T18:23:03.196Z,5.83
2018-11-04T18:25:30.624Z,4.30
2018-11-04T18:27:58.059Z,6.03
2018-11-04T18:30:25.473Z,5.20
2018-11-04T18:32:52.892Z,7.30
2018-11-04T18:35:20.463Z,5.53
2018-11-04T18:37:47.870Z,4.73
2018-11-04T18:40:16.721Z,7.30
2018-11-04T18:42:44.523Z,5.50
2018-11-04T18:45:13.455Z,5.70
2018-11-04T18:47:40.988Z,7.47
2018-11-04T18:50:09.471Z,3.27
2018-11-04T18:52:37.109Z,4.23
2018-11-04T18:55:04.850Z,4.57
2018-11-04T18:57:32.260Z,6.27
2018-11-04T18:59:59.666Z,7.00
2018-11-04T19:02:27.100Z,4.57
2018-11-04T19:04:54.542Z,6.40
2018-11-04T19:07:21.917Z,5.97
2018-11-04T19:09:49.302Z,4.07
2018-11-04T19:12:16.724Z,7.03
2018-11-04T19:14:44.156Z,7.37
2018-11-04T19:17:11.599Z,4.50
2018-11-04T19:19:39.030Z,10.23
2018-11-04T19:22:06.494Z,4.57
2018-11-04T19:24:33.918Z,4.43
2018-11-04T19:27:01.392Z,6.23
2018-11-04T19:29:28.785Z,6.30
2018-11-04T19:31:56.186Z,4.00
2018-11-04T19:34:23.619Z,4.53
2018-11-04T19:36:51.008Z,6.90
2018-11-04T19:39:18.413Z,6.30
2018-11-04T19:41:45.835Z,7.33
2018-11-04T19:44:13.270Z,7.70
2018-11-04T19:46:40.669Z,5.77
2018-11-04T19:49:08.098Z,3.63
2018-11-04T19:51:35.461Z,5.90
2018-11-04T19:54:02.950Z,5.83
2018-11-04T19:56:30.396Z,4.20
2018-11-04T19:58:57.779Z,8.47
2018-11-04T20:01:25.202Z,4.90
2018-11-04T20:03:52.596Z,8.63
2018-11-04T20:06:20.006Z,8.77
2018-11-04T20:08:52.973Z,9.80
2018-11-04T20:11:20.498Z,4.83
2018-11-04T20:13:53.488Z,8.43
2018-11-04T20:16:20.970Z,3.63
2018-11-04T20:18:54.041Z,6.80
2018-11-04T20:21:21.457Z,4.20
2018-11-04T20:23:48.913Z,3.37
2018-11-04T20:26:16.667Z,3.70
2018-11-04T20:28:44.190Z,5.93
2018-11-04T20:31:17.448Z,6.83
2018-11-04T20:33:44.957Z,4.03
2018-11-04T20:36:12.370Z,7.03
2018-11-04T20:38:45.349Z,5.33
2018-11-04T20:41:18.498Z,3.10
2018-11-04T20:43:46.010Z,4.40
2018-11-04T20:46:13.402Z,4.57
2018-11-04T20:48:46.387Z,6.07
2018-11-04T20:51:13.841Z,4.60
2018-11-04T20:53:41.254Z,5.70
2018-11-04T20:56:14.346Z,5.70
2018-11-04T20:58:41.885Z,5.80
2018-11-04T21:01:09.175Z,8.27
2018-11-04T21:03:36.573Z,4.53
2018-11-04T21:06:04.062Z,10.10
2018-11-04T21:08:31.488Z,2.67
2018-11-04T21:10:58.959Z,5.03
2018-11-04T21:13:26.984Z,5.90
2018-11-04T21:15:54.579Z,5.37
2018-11-04T21:18:21.885Z,7.23
2018-11-04T21:20:49.321Z,9.40
2018-11-04T21:23:16.728Z,5.60
2018-11-04T21:25:44.397Z,7.17
2018-11-04T21:28:11.618Z,8.33
2018-11-04T21:30:39.037Z,4.63
2018-11-04T21:33:06.426Z,7.87
2018-11-04T21:35:33.862Z,8.67
2018-11-04T21:38:01.341Z,7.73
2018-11-04T21:40:28.873Z,7.10
2018-11-04T21:42:56.270Z,7.03
2018-11-04T21:45:23.679Z,4.70
2018-11-04T21:47:51.111Z,4.43
2018-11-04T21:50:18.526Z,11.73
2018-11-04T21:52:45.931Z,3.60
2018-11-04T21:55:13.543Z,6.50
2018-11-04T21:57:41.802Z,7.40
2018-11-04T22:00:11.291Z,5.07
2018-11-04T22:02:38.791Z,6.13
2018-11-04T22:05:06.445Z,4.77
2018-11-04T22:07:33.859Z,10.27
2018-11-04T22:10:01.264Z,6.57
2018-11-04T22:12:28.673Z,8.10
2018-11-04T22:14:56.064Z,3.97
2018-11-04T22:17:23.472Z,5.83
2018-11-04T22:19:50.880Z,5.47
2018-11-04T22:22:18.449Z,9.63
2018-11-04T22:24:45.811Z,9.23
2018-11-04T22:27:13.394Z,7.20
2018-11-04T22:29:40.846Z,7.23
2018-11-04T22:32:08.268Z,9.17
2018-11-04T22:34:35.757Z,12.27
2018-11-04T22:37:03.214Z,8.37
2018-11-04T22:39:30.625Z,10.03
2018-11-04T22:41:58.080Z,11.73
2018-11-04T22:44:25.477Z,9.33
2018-11-04T22:46:52.908Z,10.03
2018-11-04T22:49:20.349Z,9.77
2018-11-04T22:51:47.801Z,10.90
2018-11-04T22:54:15.193Z,8.33
2018-11-04T22:56:42.741Z,11.97
2018-11-04T22:59:10.035Z,8.33
2018-11-04T23:01:37.490Z,10.40
2018-11-04T23:04:05.233Z,8.90
2018-11-04T23:06:32.580Z,7.10
2018-11-04T23:08:59.964Z,11.53
2018-11-04T23:11:27.373Z,9.90
2018-11-04T23:13:54.764Z,8.80
2018-11-04T23:16:22.182Z,9.07
2018-11-04T23:18:49.696Z,12.73
2018-11-04T23:21:17.041Z,9.77
2018-11-04T23:23:44.497Z,12.20
2018-11-04T23:26:11.905Z,6.90
2018-11-04T23:28:39.542Z,10.33
2018-11-04T23:31:06.973Z,9.37
2018-11-04T23:33:34.405Z,12.20
2018-11-04T23:36:01.826Z,8.60
2018-11-04T23:38:29.230Z,7.33
2018-11-04T23:40:56.624Z,7.37
2018-11-04T23:43:24.013Z,8.57
2018-11-04T23:45:51.452Z,15.67
2018-11-04T23:48:18.870Z,16.37
2018-11-04T23:50:46.285Z,14.13
2018-11-04T23:53:13.717Z,10.67
2018-11-04T23:55:41.129Z,10.90
2018-11-04T23:58:09.974Z,11.73
